sensor_id;sensor_type;location;lat;lon;timestamp;pressure;altitude;pressure_sealevel;temperature;humidity
8949;BME280;4509;51.522;9.910;2022-07-18T00:02:00;100849.84;;;14.10;70.35
8949;BME280;4509;51.522;9.910;2022-07-18T00:04:28;100847.63;;;14.04;68.72
8949;BME280;4509;51.522;9.910;2022-07-18T00:06:55;100850.91;;;13.95;73.76
8949;BME280;4509;51.522;9.910;2022-07-18T00:09:21;100855.31;;;13.94;72.59
8949;BME280;4509;51.522;9.910;2022-07-18T00:11:50;100859.84;;;13.92;68.98
8949;BME280;4509;51.522;9.910;2022-07-18T00:14:17;100859.25;;;13.89;70.12
8949;BME280;4509;51.522;9.910;2022-07-18T00:16:44;100859.03;;;13.79;69.53
8949;BME280;4509;51.522;9.910;2022-07-18T00:19:11;100860.41;;;13.72;73.73
8949;BME280;4509;51.522;9.910;2022-07-18T00:21:38;100862.09;;;13.73;69.48
8949;BME280;4509;51.522;9.910;2022-07-18T00:24:05;100868.72;;;13.66;70.36
8949;BME280;4509;51.522;9.910;2022-07-18T00:26:31;100870.81;;;13.61;70.43
8949;BME280;4509;51.522;9.910;2022-07-18T00:29:00;100869.56;;;13.54;71.85
8949;BME280;4509;51.522;9.910;2022-07-18T00:31:27;100874.28;;;13.48;71.33
8949;BME280;4509;51.522;9.910;2022-07-18T00:33:54;100875.13;;;13.49;70.55
8949;BME280;4509;51.522;9.910;2022-07-18T00:36:20;100868.06;;;13.49;69.79
8949;BME280;4509;51.522;9.910;2022-07-18T00:38:47;100870.47;;;13.40;71.44
8949;BME280;4509;51.522;9.910;2022-07-18T00:41:14;100879.72;;;13.33;77.32
8949;BME280;4509;51.522;9.910;2022-07-18T00:43:41;100874.66;;;13.30;72.50
8949;BME280;4509;51.522;9.910;2022-07-18T00:46:09;100873.25;;;13.24;75.42
8949;BME280;4509;51.522;9.910;2022-07-18T00:48:36;100880.22;;;13.25;73.46
8949;BME280;4509;51.522;9.910;2022-07-18T00:51:03;100872.25;;;13.12;79.18
8949;BME280;4509;51.522;9.910;2022-07-18T00:53:30;100859.88;;;13.00;75.34
8949;BME280;4509;51.522;9.910;2022-07-18T00:55:57;100862.97;;;13.07;75.27
8949;BME280;4509;51.522;9.910;2022-07-18T00:58:25;100864.25;;;12.87;81.77
8949;BME280;4509;51.522;9.910;2022-07-18T01:00:52;100865.75;;;12.91;73.63
8949;BME280;4509;51.522;9.910;2022-07-18T01:03:37;100870.56;;;12.84;74.77
8949;BME280;4509;51.522;9.910;2022-07-18T01:06:04;100873.09;;;12.86;74.45
8949;BME280;4509;51.522;9.910;2022-07-18T01:08:31;100868.88;;;12.83;75.62
8949;BME280;4509;51.522;9.910;2022-07-18T01:10:58;100870.03;;;12.79;74.42
8949;BME280;4509;51.522;9.910;2022-07-18T01:13:24;100867.78;;;12.73;75.54
8949;BME280;4509;51.522;9.910;2022-07-18T01:15:51;100862.34;;;12.76;74.42
8949;BME280;4509;51.522;9.910;2022-07-18T01:18:18;100854.72;;;12.72;74.55
8949;BME280;4509;51.522;9.910;2022-07-18T01:20:46;100856.50;;;12.71;73.38
8949;BME280;4509;51.522;9.910;2022-07-18T01:23:12;100847.63;;;12.60;73.86
8949;BME280;4509;51.522;9.910;2022-07-18T01:25:39;100849.59;;;12.56;73.31
8949;BME280;4509;51.522;9.910;2022-07-18T01:28:06;100848.09;;;12.52;74.68
8949;BME280;4509;51.522;9.910;2022-07-18T01:30:32;100852.06;;;12.45;73.75
8949;BME280;4509;51.522;9.910;2022-07-18T01:33:01;100846.06;;;12.43;72.20
8949;BME280;4509;51.522;9.910;2022-07-18T01:35:29;100848.88;;;12.40;72.93
8949;BME280;4509;51.522;9.910;2022-07-18T01:38:00;100846.91;;;12.29;74.91
8949;BME280;4509;51.522;9.910;2022-07-18T01:40:27;100840.75;;;12.16;86.76
8949;BME280;4509;51.522;9.910;2022-07-18T01:42:54;100851.34;;;12.14;80.39
8949;BME280;4509;51.522;9.910;2022-07-18T01:45:21;100848.16;;;12.24;75.26
8949;BME280;4509;51.522;9.910;2022-07-18T01:47:48;100847.50;;;12.20;75.44
8949;BME280;4509;51.522;9.910;2022-07-18T01:50:15;100851.91;;;12.20;75.02
8949;BME280;4509;51.522;9.910;2022-07-18T01:52:42;100848.44;;;12.19;74.53
8949;BME280;4509;51.522;9.910;2022-07-18T01:55:10;100850.41;;;12.16;74.61
8949;BME280;4509;51.522;9.910;2022-07-18T01:57:37;100853.88;;;12.16;76.32
8949;BME280;4509;51.522;9.910;2022-07-18T02:00:07;100846.44;;;12.08;75.42
8949;BME280;4509;51.522;9.910;2022-07-18T02:02:34;100849.16;;;12.07;76.21
8949;BME280;4509;51.522;9.910;2022-07-18T02:05:00;100850.22;;;12.04;75.61
8949;BME280;4509;51.522;9.910;2022-07-18T02:07:30;100848.06;;;11.97;75.73
8949;BME280;4509;51.522;9.910;2022-07-18T02:09:58;100841.88;;;11.98;75.96
8949;BME280;4509;51.522;9.910;2022-07-18T02:12:26;100841.97;;;11.82;82.20
8949;BME280;4509;51.522;9.910;2022-07-18T02:14:53;100838.91;;;11.74;85.53
8949;BME280;4509;51.522;9.910;2022-07-18T02:17:20;100845.09;;;11.73;77.32
8949;BME280;4509;51.522;9.910;2022-07-18T02:19:47;100848.56;;;11.73;75.89
8949;BME280;4509;51.522;9.910;2022-07-18T02:22:13;100848.75;;;11.70;82.28
8949;BME280;4509;51.522;9.910;2022-07-18T02:24:40;100844.53;;;11.68;77.70
8949;BME280;4509;51.522;9.910;2022-07-18T02:27:07;100842.09;;;11.65;79.78
8949;BME280;4509;51.522;9.910;2022-07-18T02:29:35;100840.84;;;11.56;82.68
8949;BME280;4509;51.522;9.910;2022-07-18T02:32:02;100838.22;;;11.42;89.08
8949;BME280;4509;51.522;9.910;2022-07-18T02:34:29;100832.03;;;11.43;83.33
8949;BME280;4509;51.522;9.910;2022-07-18T02:36:56;100831.44;;;11.38;84.90
8949;BME280;4509;51.522;9.910;2022-07-18T02:39:23;100834.47;;;11.46;76.20
8949;BME280;4509;51.522;9.910;2022-07-18T02:41:49;100819.81;;;11.42;83.83
8949;BME280;4509;51.522;9.910;2022-07-18T02:44:16;100829.06;;;11.33;85.87
8949;BME280;4509;51.522;9.910;2022-07-18T02:46:44;100825.72;;;11.31;77.04
8949;BME280;4509;51.522;9.910;2022-07-18T02:49:11;100842.75;;;11.24;89.19
8949;BME280;4509;51.522;9.910;2022-07-18T02:51:52;100844.88;;;11.18;86.59
8949;BME280;4509;51.522;9.910;2022-07-18T02:54:19;100849.38;;;11.16;87.88
8949;BME280;4509;51.522;9.910;2022-07-18T02:56:46;100852.34;;;11.09;92.07
8949;BME280;4509;51.522;9.910;2022-07-18T02:59:13;100846.19;;;11.10;82.89
8949;BME280;4509;51.522;9.910;2022-07-18T03:01:39;100852.53;;;11.06;86.25
8949;BME280;4509;51.522;9.910;2022-07-18T03:04:07;100858.97;;;11.01;82.06
8949;BME280;4509;51.522;9.910;2022-07-18T03:06:34;100855.31;;;11.03;86.67
8949;BME280;4509;51.522;9.910;2022-07-18T03:09:01;100853.38;;;11.07;81.94
8949;BME280;4509;51.522;9.910;2022-07-18T03:11:27;100851.44;;;10.95;93.61
8949;BME280;4509;51.522;9.910;2022-07-18T03:13:54;100847.53;;;11.02;82.29
8949;BME280;4509;51.522;9.910;2022-07-18T03:16:21;100851.09;;;11.01;86.64
8949;BME280;4509;51.522;9.910;2022-07-18T03:18:47;100850.94;;;11.04;80.60
8949;BME280;4509;51.522;9.910;2022-07-18T03:21:15;100850.50;;;10.96;92.42
8949;BME280;4509;51.522;9.910;2022-07-18T03:23:42;100836.31;;;10.84;88.34
8949;BME280;4509;51.522;9.910;2022-07-18T03:26:08;100831.81;;;10.86;82.88
8949;BME280;4509;51.522;9.910;2022-07-18T03:28:35;100829.16;;;10.72;86.80
8949;BME280;4509;51.522;9.910;2022-07-18T03:31:02;100834.31;;;10.73;80.44
8949;BME280;4509;51.522;9.910;2022-07-18T03:33:29;100836.31;;;10.84;83.03
8949;BME280;4509;51.522;9.910;2022-07-18T03:35:56;100840.03;;;10.80;87.95
8949;BME280;4509;51.522;9.910;2022-07-18T03:38:24;100842.75;;;10.79;88.68
8949;BME280;4509;51.522;9.910;2022-07-18T03:40:50;100838.41;;;10.77;85.92
8949;BME280;4509;51.522;9.910;2022-07-18T03:43:17;100834.63;;;10.67;88.01
8949;BME280;4509;51.522;9.910;2022-07-18T03:45:44;100829.41;;;10.67;86.25
8949;BME280;4509;51.522;9.910;2022-07-18T03:48:10;100834.47;;;10.70;92.94
8949;BME280;4509;51.522;9.910;2022-07-18T03:50:37;100831.69;;;10.73;86.95
8949;BME280;4509;51.522;9.910;2022-07-18T03:53:03;100838.03;;;10.69;92.14
8949;BME280;4509;51.522;9.910;2022-07-18T03:55:32;100838.34;;;10.63;91.11
8949;BME280;4509;51.522;9.910;2022-07-18T03:57:58;100845.91;;;10.69;83.76
8949;BME280;4509;51.522;9.910;2022-07-18T04:00:25;100843.09;;;10.72;88.36
8949;BME280;4509;51.522;9.910;2022-07-18T04:02:51;100843.59;;;10.63;92.87
8949;BME280;4509;51.522;9.910;2022-07-18T04:05:18;100836.66;;;10.78;84.88
8949;BME280;4509;51.522;9.910;2022-07-18T04:07:45;100844.44;;;10.80;89.58
8949;BME280;4509;51.522;9.910;2022-07-18T04:10:12;100843.59;;;10.79;95.63
8949;BME280;4509;51.522;9.910;2022-07-18T04:12:51;100848.91;;;10.77;94.42
8949;BME280;4509;51.522;9.910;2022-07-18T04:15:19;100834.69;;;10.82;92.26
8949;BME280;4509;51.522;9.910;2022-07-18T04:17:46;100837.31;;;10.82;93.15
8949;BME280;4509;51.522;9.910;2022-07-18T04:20:14;100830.91;;;10.87;85.91
8949;BME280;4509;51.522;9.910;2022-07-18T04:22:46;100828.19;;;10.89;91.13
8949;BME280;4509;51.522;9.910;2022-07-18T04:25:13;100831.28;;;10.95;89.50
8949;BME280;4509;51.522;9.910;2022-07-18T04:27:40;100826.63;;;11.00;94.19
8949;BME280;4509;51.522;9.910;2022-07-18T04:30:09;100828.81;;;11.08;91.59
8949;BME280;4509;51.522;9.910;2022-07-18T04:32:36;100828.66;;;11.11;97.82
8949;BME280;4509;51.522;9.910;2022-07-18T04:35:03;100831.41;;;11.24;99.13
8949;BME280;4509;51.522;9.910;2022-07-18T04:37:30;100832.94;;;11.28;100.00
8949;BME280;4509;51.522;9.910;2022-07-18T04:39:57;100831.44;;;11.38;100.00
8949;BME280;4509;51.522;9.910;2022-07-18T04:42:24;100831.19;;;11.42;100.00
8949;BME280;4509;51.522;9.910;2022-07-18T04:44:51;100836.72;;;11.52;100.00
8949;BME280;4509;51.522;9.910;2022-07-18T04:47:19;100840.41;;;11.64;100.00
8949;BME280;4509;51.522;9.910;2022-07-18T04:49:45;100840.78;;;11.72;100.00
8949;BME280;4509;51.522;9.910;2022-07-18T04:52:12;100844.84;;;11.92;100.00
8949;BME280;4509;51.522;9.910;2022-07-18T04:54:39;100835.31;;;12.05;100.00
8949;BME280;4509;51.522;9.910;2022-07-18T04:57:05;100816.63;;;12.24;100.00
8949;BME280;4509;51.522;9.910;2022-07-18T04:59:32;100817.97;;;12.43;99.76
8949;BME280;4509;51.522;9.910;2022-07-18T05:01:59;100810.47;;;12.64;99.32
8949;BME280;4509;51.522;9.910;2022-07-18T05:04:27;100812.25;;;12.78;96.62
8949;BME280;4509;51.522;9.910;2022-07-18T05:06:54;100810.81;;;12.99;95.78
8949;BME280;4509;51.522;9.910;2022-07-18T05:09:21;100806.91;;;13.19;94.64
8949;BME280;4509;51.522;9.910;2022-07-18T05:11:47;100812.00;;;13.35;92.46
8949;BME280;4509;51.522;9.910;2022-07-18T05:14:14;100814.75;;;13.46;93.35
8949;BME280;4509;51.522;9.910;2022-07-18T05:16:41;100818.53;;;13.55;94.19
8949;BME280;4509;51.522;9.910;2022-07-18T05:19:07;100816.47;;;13.72;93.25
8949;BME280;4509;51.522;9.910;2022-07-18T05:21:35;100811.81;;;13.89;91.67
8949;BME280;4509;51.522;9.910;2022-07-18T05:24:02;100807.78;;;14.08;90.57
8949;BME280;4509;51.522;9.910;2022-07-18T05:26:29;100798.88;;;14.22;90.43
8949;BME280;4509;51.522;9.910;2022-07-18T05:28:56;100793.88;;;14.30;89.97
8949;BME280;4509;51.522;9.910;2022-07-18T05:31:22;100794.09;;;14.40;90.19
8949;BME280;4509;51.522;9.910;2022-07-18T05:33:49;100798.28;;;14.55;88.45
8949;BME280;4509;51.522;9.910;2022-07-18T05:36:16;100788.56;;;14.79;86.13
8949;BME280;4509;51.522;9.910;2022-07-18T05:38:43;100795.25;;;14.96;84.93
8949;BME280;4509;51.522;9.910;2022-07-18T05:41:10;100800.22;;;15.12;84.33
8949;BME280;4509;51.522;9.910;2022-07-18T05:43:37;100795.91;;;15.22;83.08
8949;BME280;4509;51.522;9.910;2022-07-18T05:46:05;100808.44;;;15.42;82.22
8949;BME280;4509;51.522;9.910;2022-07-18T05:48:31;100799.66;;;15.66;82.10
8949;BME280;4509;51.522;9.910;2022-07-18T05:50:58;100805.06;;;15.86;81.30
8949;BME280;4509;51.522;9.910;2022-07-18T05:53:25;100806.03;;;16.08;82.38
8949;BME280;4509;51.522;9.910;2022-07-18T05:55:53;100812.25;;;16.40;81.40
8949;BME280;4509;51.522;9.910;2022-07-18T05:58:20;100809.19;;;16.56;78.40
8949;BME280;4509;51.522;9.910;2022-07-18T06:00:46;100802.69;;;16.71;76.70
8949;BME280;4509;51.522;9.910;2022-07-18T06:03:13;100804.66;;;16.90;76.33
8949;BME280;4509;51.522;9.910;2022-07-18T06:05:40;100796.38;;;17.15;76.17
8949;BME280;4509;51.522;9.910;2022-07-18T06:08:06;100804.00;;;17.29;76.15
8949;BME280;4509;51.522;9.910;2022-07-18T06:10:33;100800.06;;;17.45;72.98
8949;BME280;4509;51.522;9.910;2022-07-18T06:13:01;100792.38;;;17.62;71.91
8949;BME280;4509;51.522;9.910;2022-07-18T06:15:28;100789.81;;;17.82;72.63
8949;BME280;4509;51.522;9.910;2022-07-18T06:17:55;100787.53;;;17.98;69.62
8949;BME280;4509;51.522;9.910;2022-07-18T06:20:21;100786.56;;;17.99;67.19
8949;BME280;4509;51.522;9.910;2022-07-18T06:22:48;100782.72;;;18.22;67.13
8949;BME280;4509;51.522;9.910;2022-07-18T06:25:15;100780.09;;;18.32;66.12
8949;BME280;4509;51.522;9.910;2022-07-18T06:27:42;100774.41;;;18.56;65.70
8949;BME280;4509;51.522;9.910;2022-07-18T06:30:11;100777.94;;;18.66;66.56
8949;BME280;4509;51.522;9.910;2022-07-18T06:32:38;100782.56;;;18.83;64.04
8949;BME280;4509;51.522;9.910;2022-07-18T06:35:05;100787.59;;;18.96;62.39
8949;BME280;4509;51.522;9.910;2022-07-18T06:37:32;100774.03;;;19.09;64.52
8949;BME280;4509;51.522;9.910;2022-07-18T06:39:59;100775.00;;;19.17;60.46
8949;BME280;4509;51.522;9.910;2022-07-18T06:42:25;100768.66;;;19.37;60.85
8949;BME280;4509;51.522;9.910;2022-07-18T06:44:52;100773.56;;;19.52;59.95
8949;BME280;4509;51.522;9.910;2022-07-18T06:47:20;100757.53;;;19.71;59.20
8949;BME280;4509;51.522;9.910;2022-07-18T06:49:46;100768.53;;;19.86;62.22
8949;BME280;4509;51.522;9.910;2022-07-18T06:52:13;100767.03;;;20.11;59.94
8949;BME280;4509;51.522;9.910;2022-07-18T06:54:41;100768.56;;;20.13;58.09
8949;BME280;4509;51.522;9.910;2022-07-18T06:57:08;100760.97;;;20.18;54.10
8949;BME280;4509;51.522;9.910;2022-07-18T06:59:35;100753.16;;;20.34;55.63
8949;BME280;4509;51.522;9.910;2022-07-18T07:02:02;100749.94;;;20.58;55.95
8949;BME280;4509;51.522;9.910;2022-07-18T07:04:30;100752.28;;;20.79;54.21
8949;BME280;4509;51.522;9.910;2022-07-18T07:06:57;100746.56;;;21.09;52.64
8949;BME280;4509;51.522;9.910;2022-07-18T07:09:24;100743.84;;;21.45;55.93
8949;BME280;4509;51.522;9.910;2022-07-18T07:11:51;100748.81;;;21.74;52.15
8949;BME280;4509;51.522;9.910;2022-07-18T07:14:17;100742.22;;;21.86;49.20
8949;BME280;4509;51.522;9.910;2022-07-18T07:16:44;100748.34;;;22.13;51.43
8949;BME280;4509;51.522;9.910;2022-07-18T07:19:10;100738.25;;;22.40;48.47
8949;BME280;4509;51.522;9.910;2022-07-18T07:21:38;100739.59;;;22.53;46.58
8949;BME280;4509;51.522;9.910;2022-07-18T07:24:05;100742.97;;;22.63;48.30
8949;BME280;4509;51.522;9.910;2022-07-18T07:26:33;100739.91;;;22.50;45.76
8949;BME280;4509;51.522;9.910;2022-07-18T07:28:59;100739.81;;;22.84;49.63
8949;BME280;4509;51.522;9.910;2022-07-18T07:31:26;100738.16;;;23.07;46.88
8949;BME280;4509;51.522;9.910;2022-07-18T07:33:53;100738.28;;;23.22;45.46
8949;BME280;4509;51.522;9.910;2022-07-18T07:36:19;100731.28;;;23.37;47.04
8949;BME280;4509;51.522;9.910;2022-07-18T07:38:48;100724.19;;;23.60;44.46
8949;BME280;4509;51.522;9.910;2022-07-18T07:41:15;100729.47;;;23.76;43.73
8949;BME280;4509;51.522;9.910;2022-07-18T07:43:41;100732.47;;;23.81;45.08
8949;BME280;4509;51.522;9.910;2022-07-18T07:46:08;100738.50;;;23.83;44.53
8949;BME280;4509;51.522;9.910;2022-07-18T07:48:36;100727.53;;;24.01;43.79
8949;BME280;4509;51.522;9.910;2022-07-18T07:51:02;100725.91;;;24.31;43.81
8949;BME280;4509;51.522;9.910;2022-07-18T07:53:29;100726.81;;;24.46;43.44
8949;BME280;4509;51.522;9.910;2022-07-18T07:55:57;100721.47;;;24.46;41.85
8949;BME280;4509;51.522;9.910;2022-07-18T07:58:24;100716.34;;;24.60;41.44
8949;BME280;4509;51.522;9.910;2022-07-18T08:00:51;100714.91;;;24.72;42.70
8949;BME280;4509;51.522;9.910;2022-07-18T08:03:17;100709.69;;;24.93;41.73
8949;BME280;4509;51.522;9.910;2022-07-18T08:05:45;100702.38;;;25.25;41.12
8949;BME280;4509;51.522;9.910;2022-07-18T08:08:13;100700.56;;;25.40;41.50
8949;BME280;4509;51.522;9.910;2022-07-18T08:10:39;100694.22;;;25.47;41.06
8949;BME280;4509;51.522;9.910;2022-07-18T08:13:08;100693.69;;;25.67;42.02
8949;BME280;4509;51.522;9.910;2022-07-18T08:15:34;100689.78;;;25.84;39.71
8949;BME280;4509;51.522;9.910;2022-07-18T08:18:02;100696.19;;;25.98;38.48
8949;BME280;4509;51.522;9.910;2022-07-18T08:20:28;100693.81;;;26.09;38.76
8949;BME280;4509;51.522;9.910;2022-07-18T08:22:56;100695.94;;;26.14;39.59
8949;BME280;4509;51.522;9.910;2022-07-18T08:25:24;100696.38;;;26.17;37.16
8949;BME280;4509;51.522;9.910;2022-07-18T08:27:50;100693.28;;;26.56;40.22
8949;BME280;4509;51.522;9.910;2022-07-18T08:30:19;100705.72;;;26.79;38.79
8949;BME280;4509;51.522;9.910;2022-07-18T08:32:45;100703.91;;;26.86;36.90
8949;BME280;4509;51.522;9.910;2022-07-18T08:35:12;100697.09;;;27.11;37.78
8949;BME280;4509;51.522;9.910;2022-07-18T08:37:39;100690.84;;;27.04;38.39
8949;BME280;4509;51.522;9.910;2022-07-18T08:40:06;100695.47;;;27.17;35.77
8949;BME280;4509;51.522;9.910;2022-07-18T08:42:34;100688.38;;;27.37;37.12
8949;BME280;4509;51.522;9.910;2022-07-18T08:45:02;100677.84;;;27.49;36.84
8949;BME280;4509;51.522;9.910;2022-07-18T08:47:31;100680.88;;;27.67;36.33
8949;BME280;4509;51.522;9.910;2022-07-18T08:49:58;100685.13;;;27.89;35.93
8949;BME280;4509;51.522;9.910;2022-07-18T08:52:26;100679.38;;;28.06;35.50
8949;BME280;4509;51.522;9.910;2022-07-18T08:54:54;100683.75;;;28.13;35.27
8949;BME280;4509;51.522;9.910;2022-07-18T08:57:21;100684.00;;;28.25;35.71
8949;BME280;4509;51.522;9.910;2022-07-18T08:59:48;100689.63;;;28.30;34.30
8949;BME280;4509;51.522;9.910;2022-07-18T09:02:15;100680.31;;;28.33;35.43
8949;BME280;4509;51.522;9.910;2022-07-18T09:04:44;100689.06;;;28.54;35.30
8949;BME280;4509;51.522;9.910;2022-07-18T09:07:23;100687.19;;;28.55;34.85
8949;BME280;4509;51.522;9.910;2022-07-18T09:09:52;100677.03;;;28.57;35.83
8949;BME280;4509;51.522;9.910;2022-07-18T09:12:19;100683.84;;;28.59;34.09
8949;BME280;4509;51.522;9.910;2022-07-18T09:14:46;100677.25;;;28.82;34.32
8949;BME280;4509;51.522;9.910;2022-07-18T09:17:15;100673.84;;;29.33;34.81
8949;BME280;4509;51.522;9.910;2022-07-18T09:19:56;100681.59;;;29.22;34.06
8949;BME280;4509;51.522;9.910;2022-07-18T09:22:25;100670.75;;;29.49;33.14
8949;BME280;4509;51.522;9.910;2022-07-18T09:24:54;100665.03;;;29.70;33.79
8949;BME280;4509;51.522;9.910;2022-07-18T09:27:29;100662.84;;;29.47;32.20
8949;BME280;4509;51.522;9.910;2022-07-18T09:30:21;100662.66;;;29.29;33.52
8949;BME280;4509;51.522;9.910;2022-07-18T09:32:51;100661.00;;;29.41;34.12
8949;BME280;4509;51.522;9.910;2022-07-18T09:35:22;100660.13;;;29.54;33.80
8949;BME280;4509;51.522;9.910;2022-07-18T09:37:53;100654.97;;;29.90;33.37
8949;BME280;4509;51.522;9.910;2022-07-18T09:40:22;100653.50;;;30.33;32.27
8949;BME280;4509;51.522;9.910;2022-07-18T09:42:50;100646.38;;;30.38;32.66
8949;BME280;4509;51.522;9.910;2022-07-18T09:45:22;100650.47;;;30.47;31.64
8949;BME280;4509;51.522;9.910;2022-07-18T09:47:51;100652.88;;;30.62;31.58
8949;BME280;4509;51.522;9.910;2022-07-18T09:50:22;100644.63;;;30.57;32.03
8949;BME280;4509;51.522;9.910;2022-07-18T09:52:57;100650.75;;;30.71;31.60
8949;BME280;4509;51.522;9.910;2022-07-18T09:55:23;100649.28;;;30.93;34.14
8949;BME280;4509;51.522;9.910;2022-07-18T09:57:57;100638.97;;;31.02;30.71
8949;BME280;4509;51.522;9.910;2022-07-18T10:00:27;100642.13;;;31.23;30.92
8949;BME280;4509;51.522;9.910;2022-07-18T10:02:56;100644.16;;;31.46;30.01
8949;BME280;4509;51.522;9.910;2022-07-18T10:05:29;100638.75;;;31.46;29.78
8949;BME280;4509;51.522;9.910;2022-07-18T10:07:57;100635.66;;;31.43;30.54
8949;BME280;4509;51.522;9.910;2022-07-18T10:10:24;100636.53;;;31.55;30.78
8949;BME280;4509;51.522;9.910;2022-07-18T10:12:54;100633.22;;;31.89;30.00
8949;BME280;4509;51.522;9.910;2022-07-18T10:15:21;100635.13;;;32.00;29.60
8949;BME280;4509;51.522;9.910;2022-07-18T10:17:49;100641.19;;;32.14;29.77
8949;BME280;4509;51.522;9.910;2022-07-18T10:20:16;100633.47;;;32.29;29.12
8949;BME280;4509;51.522;9.910;2022-07-18T10:22:45;100643.75;;;32.39;30.18
8949;BME280;4509;51.522;9.910;2022-07-18T10:25:13;100642.25;;;32.43;30.33
8949;BME280;4509;51.522;9.910;2022-07-18T10:27:51;100641.19;;;32.56;28.64
8949;BME280;4509;51.522;9.910;2022-07-18T10:30:30;100639.41;;;32.38;28.55
8949;BME280;4509;51.522;9.910;2022-07-18T10:32:57;100634.81;;;32.50;28.87
8949;BME280;4509;51.522;9.910;2022-07-18T10:35:57;100634.09;;;32.55;29.27
8949;BME280;4509;51.522;9.910;2022-07-18T10:38:26;100635.00;;;32.79;29.12
8949;BME280;4509;51.522;9.910;2022-07-18T10:41:10;100637.72;;;33.02;30.67
8949;BME280;4509;51.522;9.910;2022-07-18T10:43:42;100629.66;;;33.19;29.48
8949;BME280;4509;51.522;9.910;2022-07-18T10:46:10;100632.91;;;33.56;32.75
8949;BME280;4509;51.522;9.910;2022-07-18T10:48:54;100618.84;;;33.47;27.17
8949;BME280;4509;51.522;9.910;2022-07-18T10:51:34;100617.56;;;33.50;27.18
8949;BME280;4509;51.522;9.910;2022-07-18T10:54:11;100610.81;;;33.52;28.84
8949;BME280;4509;51.522;9.910;2022-07-18T10:57:06;100606.19;;;33.93;31.23
8949;BME280;4509;51.522;9.910;2022-07-18T10:59:35;100610.94;;;33.86;29.48
8949;BME280;4509;51.522;9.910;2022-07-18T11:02:05;100606.69;;;34.07;26.23
8949;BME280;4509;51.522;9.910;2022-07-18T11:04:35;100607.38;;;34.14;26.00
8949;BME280;4509;51.522;9.910;2022-07-18T11:07:09;100613.09;;;34.00;27.19
8949;BME280;4509;51.522;9.910;2022-07-18T11:09:39;100607.66;;;34.00;28.27
8949;BME280;4509;51.522;9.910;2022-07-18T11:12:20;100597.97;;;33.76;31.89
8949;BME280;4509;51.522;9.910;2022-07-18T11:15:02;100595.34;;;34.26;29.34
8949;BME280;4509;51.522;9.910;2022-07-18T11:18:00;100592.88;;;34.42;26.42
8949;BME280;4509;51.522;9.910;2022-07-18T11:20:36;100592.63;;;34.43;25.85
8949;BME280;4509;51.522;9.910;2022-07-18T11:23:04;100593.53;;;34.65;27.50
8949;BME280;4509;51.522;9.910;2022-07-18T11:25:40;100586.78;;;34.34;28.27
8949;BME280;4509;51.522;9.910;2022-07-18T11:28:08;100592.53;;;34.55;27.65
8949;BME280;4509;51.522;9.910;2022-07-18T11:30:35;100585.69;;;34.52;28.18
8949;BME280;4509;51.522;9.910;2022-07-18T11:33:03;100579.63;;;35.00;27.55
8949;BME280;4509;51.522;9.910;2022-07-18T11:35:30;100573.22;;;35.12;25.61
8949;BME280;4509;51.522;9.910;2022-07-18T11:37:57;100567.63;;;35.45;27.68
8949;BME280;4509;51.522;9.910;2022-07-18T11:40:30;100570.75;;;35.54;26.55
8949;BME280;4509;51.522;9.910;2022-07-18T11:42:58;100565.38;;;35.37;25.92
8949;BME280;4509;51.522;9.910;2022-07-18T11:45:24;100570.31;;;35.62;25.95
8949;BME280;4509;51.522;9.910;2022-07-18T11:47:53;100568.41;;;35.62;25.34
8949;BME280;4509;51.522;9.910;2022-07-18T11:50:33;100562.16;;;35.40;24.43
8949;BME280;4509;51.522;9.910;2022-07-18T11:53:00;100554.78;;;35.67;25.49
8949;BME280;4509;51.522;9.910;2022-07-18T11:55:32;100555.78;;;35.83;26.35
8949;BME280;4509;51.522;9.910;2022-07-18T11:58:06;100548.31;;;36.00;26.01
8949;BME280;4509;51.522;9.910;2022-07-18T12:00:33;100547.34;;;35.85;25.43
8949;BME280;4509;51.522;9.910;2022-07-18T12:03:00;100541.47;;;35.71;24.04
8949;BME280;4509;51.522;9.910;2022-07-18T12:05:30;100533.00;;;35.94;27.04
8949;BME280;4509;51.522;9.910;2022-07-18T12:07:57;100543.84;;;35.89;25.31
8949;BME280;4509;51.522;9.910;2022-07-18T12:10:24;100541.34;;;36.15;25.06
8949;BME280;4509;51.522;9.910;2022-07-18T12:12:51;100531.59;;;36.66;25.05
8949;BME280;4509;51.522;9.910;2022-07-18T12:15:19;100537.63;;;36.68;28.35
8949;BME280;4509;51.522;9.910;2022-07-18T12:17:47;100523.28;;;36.46;27.09
8949;BME280;4509;51.522;9.910;2022-07-18T12:20:17;100528.28;;;36.22;26.79
8949;BME280;4509;51.522;9.910;2022-07-18T12:23:03;100531.78;;;36.49;27.26
8949;BME280;4509;51.522;9.910;2022-07-18T12:28:17;100524.47;;;36.60;27.10
8949;BME280;4509;51.522;9.910;2022-07-18T12:30:45;100518.94;;;36.92;25.77
8949;BME280;4509;51.522;9.910;2022-07-18T12:33:12;100512.72;;;37.17;24.67
8949;BME280;4509;51.522;9.910;2022-07-18T12:35:39;100503.06;;;36.94;24.45
8949;BME280;4509;51.522;9.910;2022-07-18T12:38:06;100501.75;;;37.11;24.66
8949;BME280;4509;51.522;9.910;2022-07-18T12:40:42;100490.59;;;36.61;24.40
8949;BME280;4509;51.522;9.910;2022-07-18T12:43:12;100493.84;;;36.58;25.20
8949;BME280;4509;51.522;9.910;2022-07-18T12:45:39;100492.06;;;36.79;25.06
8949;BME280;4509;51.522;9.910;2022-07-18T12:48:09;100498.56;;;37.20;25.59
8949;BME280;4509;51.522;9.910;2022-07-18T12:50:37;100490.66;;;37.38;27.85
8949;BME280;4509;51.522;9.910;2022-07-18T12:53:04;100492.38;;;37.65;25.32
8949;BME280;4509;51.522;9.910;2022-07-18T12:55:31;100486.28;;;37.42;25.79
8949;BME280;4509;51.522;9.910;2022-07-18T12:57:58;100489.59;;;37.60;25.06
8949;BME280;4509;51.522;9.910;2022-07-18T13:00:24;100488.44;;;37.30;25.21
8949;BME280;4509;51.522;9.910;2022-07-18T13:02:51;100477.44;;;37.15;24.71
8949;BME280;4509;51.522;9.910;2022-07-18T13:05:22;100479.88;;;37.11;22.86
8949;BME280;4509;51.522;9.910;2022-07-18T13:07:48;100473.16;;;37.29;27.59
8949;BME280;4509;51.522;9.910;2022-07-18T13:10:15;100469.59;;;37.39;27.37
8949;BME280;4509;51.522;9.910;2022-07-18T13:12:42;100472.94;;;37.87;24.68
8949;BME280;4509;51.522;9.910;2022-07-18T13:15:09;100466.09;;;37.64;23.72
8949;BME280;4509;51.522;9.910;2022-07-18T13:17:35;100473.75;;;37.72;24.85
8949;BME280;4509;51.522;9.910;2022-07-18T13:20:02;100471.22;;;37.30;24.30